Time;durP1;ratioP1;P1;durP2;ratioP2;P2;SDS_P1;SDS_P2;PMS_P1;PMS_P2;Temp;Humidity;BMP_temperature;BMP_pressure;BME280_temperature;BME280_humidity;BME280_pressure;Samples;Min_cycle;Max_cycle;Signal;HPM_P1;HPM_P2
2022/01/10 00:04:25;;;;;;;188.20;75.40;;;-2.20;99.90;;;;;;10483123;28;20222;-76
2022/01/10 00:09:47;;;;;;;156.67;64.23;;;-2.30;99.90;;;;;;10468127;28;20296;-74
2022/01/10 00:15:10;;;;;;;136.50;58.67;;;-2.40;99.90;;;;;;10483687;28;20503;-78
2022/01/10 00:20:33;;;;;;;129.53;56.33;;;-2.40;99.90;;;;;;10483598;28;20230;-77
2022/01/10 00:25:55;;;;;;;116.30;52.87;;;-2.40;99.90;;;;;;10481743;28;20198;-77
2022/01/10 00:31:18;;;;;;;100.90;49.90;;;-2.40;99.90;;;;;;10483006;28;20447;-77
2022/01/10 00:36:40;;;;;;;100.90;49.93;;;-2.40;99.90;;;;;;10481660;28;20189;-77
2022/01/10 00:42:02;;;;;;;92.60;48.37;;;-2.40;99.90;;;;;;10481279;28;20224;-78
2022/01/10 00:47:23;;;;;;;90.43;47.90;;;-2.50;99.90;;;;;;10481821;28;20228;-77
2022/01/10 00:52:46;;;;;;;87.00;45.50;;;-2.50;99.90;;;;;;10482168;28;20217;-79
2022/01/10 00:58:08;;;;;;;90.87;46.53;;;-2.50;99.90;;;;;;10482027;28;20265;-75
2022/01/10 01:03:30;;;;;;;84.40;43.40;;;-2.50;99.90;;;;;;10480539;28;20209;-74
2022/01/10 01:08:57;;;;;;;88.93;43.60;;;-2.50;99.90;;;;;;10481195;28;20462;-77
2022/01/10 01:14:36;;;;;;;83.20;42.77;;;-2.50;99.90;;;;;;10481600;28;20597;-74
2022/01/10 01:25:21;;;;;;;98.43;47.47;;;-2.50;99.90;;;;;;10479696;28;20503;-77
2022/01/10 01:30:43;;;;;;;107.33;48.53;;;-2.50;99.90;;;;;;10479777;28;20212;-77
2022/01/10 01:36:05;;;;;;;122.83;52.03;;;-2.50;99.90;;;;;;10479305;28;20379;-77
2022/01/10 01:46:49;;;;;;;131.27;52.90;;;-2.50;99.90;;;;;;10479432;28;20229;-75
2022/01/10 01:52:11;;;;;;;134.50;50.27;;;-2.60;99.90;;;;;;10478515;28;20232;-76
2022/01/10 01:57:34;;;;;;;193.27;74.80;;;-2.70;99.90;;;;;;10478609;28;20194;-74
2022/01/10 02:02:56;;;;;;;160.53;59.80;;;-2.70;99.90;;;;;;10478359;28;20193;-76
2022/01/10 02:08:22;;;;;;;153.43;55.80;;;-2.80;99.90;;;;;;10463675;28;20194;-78
2022/01/10 02:13:45;;;;;;;112.47;48.80;;;-2.70;99.90;;;;;;10463444;28;20225;-80
2022/01/10 02:19:23;;;;;;;90.23;45.03;;;-2.70;99.90;;;;;;10476726;28;20198;-80
2022/01/10 02:24:45;;;;;;;92.63;44.87;;;-2.60;99.90;;;;;;10462688;28;20205;-81
2022/01/10 02:30:08;;;;;;;82.83;43.60;;;-2.70;99.90;;;;;;10477770;28;20216;-77
2022/01/10 02:35:49;;;;;;;87.63;43.73;;;-2.70;99.90;;;;;;10478857;28;20377;-80
2022/01/10 02:41:11;;;;;;;89.43;44.60;;;-2.70;99.90;;;;;;10477624;28;20387;-80
2022/01/10 02:46:35;;;;;;;84.87;42.67;;;-2.60;99.90;;;;;;10476034;28;20235;-80
2022/01/10 02:52:08;;;;;;;72.33;40.80;;;-2.70;99.90;;;;;;10462776;28;20531;-78
2022/01/10 02:57:31;;;;;;;81.90;40.00;;;-2.70;99.90;;;;;;10477032;28;20201;-78
2022/01/10 03:02:55;;;;;;;102.83;49.00;;;-2.70;99.90;;;;;;10476389;28;20239;-75
2022/01/10 03:08:19;;;;;;;90.30;47.43;;;-2.60;99.90;;;;;;10476291;28;20193;-76
2022/01/10 03:13:42;;;;;;;98.37;46.53;;;-2.70;99.90;;;;;;10476694;28;20462;-76
2022/01/10 03:19:04;;;;;;;111.93;51.07;;;-2.50;99.90;;;;;;10477178;28;20192;-76
2022/01/10 03:24:26;;;;;;;95.23;45.13;;;-2.60;99.90;;;;;;10476245;28;20227;-78
2022/01/10 03:29:48;;;;;;;83.17;43.60;;;-2.60;99.90;;;;;;10462188;28;20489;-78
2022/01/10 03:35:10;;;;;;;78.63;39.90;;;-2.50;99.90;;;;;;10466252;28;20207;-78
2022/01/10 03:40:33;;;;;;;80.07;41.97;;;-2.50;99.90;;;;;;10485386;28;20200;-78
2022/01/10 03:45:59;;;;;;;83.47;42.70;;;-2.50;99.90;;;;;;10483181;28;20255;-79
2022/01/10 03:51:21;;;;;;;80.87;42.53;;;-2.50;99.90;;;;;;10483424;28;20531;-80
2022/01/10 03:56:44;;;;;;;83.33;41.90;;;-2.50;99.90;;;;;;10483729;28;20242;-79
2022/01/10 04:02:06;;;;;;;77.30;40.83;;;-2.50;99.90;;;;;;10511436;28;20194;-81
2022/01/10 04:07:30;;;;;;;82.90;42.70;;;-2.50;99.90;;;;;;10489344;28;20193;-78
2022/01/10 04:12:52;;;;;;;81.80;41.00;;;-2.40;99.90;;;;;;10511018;28;20234;-79
2022/01/10 04:18:15;;;;;;;74.50;40.77;;;-2.40;99.90;;;;;;10524015;28;20409;-78
2022/01/10 04:23:38;;;;;;;73.50;39.67;;;-2.40;99.90;;;;;;10523896;28;20428;-77
2022/01/10 04:29:00;;;;;;;101.40;45.10;;;-2.40;99.90;;;;;;10523389;28;20226;-81
2022/01/10 04:34:23;;;;;;;104.43;48.40;;;-2.50;99.90;;;;;;10523915;28;20544;-76
2022/01/10 04:39:45;;;;;;;97.87;47.43;;;-2.50;99.90;;;;;;10481719;28;20264;-80
2022/01/10 04:45:08;;;;;;;83.77;43.80;;;-2.40;99.90;;;;;;10452315;28;20603;-79
2022/01/10 04:56:04;;;;;;;87.97;42.43;;;-2.50;99.90;;;;;;10440781;28;20427;-80
2022/01/10 05:01:26;;;;;;;94.20;45.60;;;-2.50;99.90;;;;;;10439366;28;20270;-79
2022/01/10 05:06:52;;;;;;;86.20;42.70;;;-2.50;99.90;;;;;;10455164;28;20204;-77
2022/01/10 05:12:15;;;;;;;93.37;42.37;;;-2.40;99.90;;;;;;10466581;28;20234;-79
2022/01/10 05:17:37;;;;;;;84.07;42.00;;;-2.50;99.90;;;;;;10480241;28;20232;-80
2022/01/10 05:22:58;;;;;;;95.63;43.67;;;-2.40;99.90;;;;;;10465649;28;20197;-78
2022/01/10 05:28:21;;;;;;;90.47;44.23;;;-2.40;99.90;;;;;;10479662;28;20192;-78
2022/01/10 05:33:45;;;;;;;86.13;43.83;;;-2.40;99.90;;;;;;10479818;28;20226;-79
2022/01/10 05:39:07;;;;;;;122.83;52.33;;;-2.50;99.90;;;;;;10480171;28;20200;-80
2022/01/10 05:44:30;;;;;;;140.90;58.60;;;-2.40;99.90;;;;;;10464113;28;20354;-80
2022/01/10 05:50:00;;;;;;;109.50;51.30;;;-2.50;99.90;;;;;;10479027;28;20219;-78
2022/01/10 05:55:27;;;;;;;110.87;51.07;;;-2.60;99.90;;;;;;10478757;28;20235;-79
2022/01/10 06:00:49;;;;;;;128.63;61.53;;;-2.60;99.90;;;;;;10478202;28;20264;-78
2022/01/10 06:06:12;;;;;;;131.93;65.00;;;-2.50;99.90;;;;;;10477764;28;20198;-78
2022/01/10 06:11:35;;;;;;;137.23;63.10;;;-2.60;99.90;;;;;;10478237;28;20236;-79
2022/01/10 06:17:00;;;;;;;140.33;62.00;;;-2.60;99.90;;;;;;10477677;28;20273;-77
2022/01/10 06:22:23;;;;;;;199.70;80.80;;;-2.70;99.90;;;;;;10477601;28;20193;-78
2022/01/10 06:27:45;;;;;;;203.00;83.53;;;-2.70;99.90;;;;;;10463341;28;20190;-77
2022/01/10 06:33:07;;;;;;;236.17;89.33;;;-2.70;99.90;;;;;;10477419;28;20218;-76
2022/01/10 06:38:30;;;;;;;237.47;93.40;;;-2.70;99.90;;;;;;10476738;28;20391;-76
2022/01/10 06:43:52;;;;;;;201.23;82.13;;;-2.70;99.90;;;;;;10477015;28;20232;-77
2022/01/10 06:49:16;;;;;;;152.17;65.60;;;-2.70;99.90;;;;;;10476290;28;20236;-77
2022/01/10 06:54:38;;;;;;;148.27;61.83;;;-2.70;99.90;;;;;;10462304;28;20225;-77
2022/01/10 07:00:02;;;;;;;216.37;73.30;;;-2.70;99.90;;;;;;10476535;28;20195;-76
2022/01/10 07:05:32;;;;;;;262.27;79.23;;;-2.70;99.90;;;;;;10475992;28;20195;-78
2022/01/10 07:11:01;;;;;;;210.83;76.90;;;-2.70;99.90;;;;;;10461351;28;20223;-78
2022/01/10 07:16:25;;;;;;;169.70;65.33;;;-2.60;99.90;;;;;;10476166;28;20557;-77
2022/01/10 07:21:54;;;;;;;176.47;72.00;;;-2.60;99.90;;;;;;10461324;28;20196;-76
2022/01/10 07:27:18;;;;;;;158.70;68.70;;;-2.60;99.90;;;;;;10462089;28;20224;-78
2022/01/10 07:32:40;;;;;;;164.10;67.97;;;-2.60;99.90;;;;;;10477208;28;20213;-80
2022/01/10 07:38:02;;;;;;;171.97;73.60;;;-2.60;99.90;;;;;;10475188;28;20201;-79
2022/01/10 07:43:24;;;;;;;179.67;76.40;;;-2.50;99.90;;;;;;10481608;28;20331;-79
2022/01/10 07:48:52;;;;;;;172.37;75.10;;;-2.50;99.90;;;;;;10477499;28;20214;-80
2022/01/10 07:54:16;;;;;;;170.77;78.97;;;-2.40;99.90;;;;;;10476236;28;20241;-80
2022/01/10 07:59:40;;;;;;;161.73;75.17;;;-2.30;99.90;;;;;;10474536;28;20406;-80
2022/01/10 08:05:05;;;;;;;150.67;70.33;;;-2.20;99.90;;;;;;10474960;28;20200;-80
2022/01/10 08:10:27;;;;;;;245.27;99.67;;;-2.10;99.90;;;;;;10461159;28;20203;-80
2022/01/10 08:15:50;;;;;;;303.00;120.07;;;-1.90;99.90;;;;;;10476355;28;20268;-80
2022/01/10 08:21:27;;;;;;;435.10;161.70;;;-1.80;99.90;;;;;;10478312;28;20246;-80
2022/01/10 08:26:49;;;;;;;447.60;171.93;;;-1.70;99.90;;;;;;10484392;28;20217;-83
2022/01/10 08:32:11;;;;;;;359.97;141.80;;;-1.60;99.90;;;;;;10337513;28;20557;-84
2022/01/10 08:37:34;;;;;;;209.60;89.77;;;-1.10;99.90;;;;;;10354720;28;20224;-80
2022/01/10 08:42:56;;;;;;;109.83;53.70;;;0.00;99.90;;;;;;10355407;28;20306;-76
2022/01/10 08:48:19;;;;;;;149.40;65.77;;;1.30;99.90;;;;;;10334143;28;20257;-76
2022/01/10 08:53:40;;;;;;;229.80;92.80;;;2.90;99.90;;;;;;10299117;28;20235;-77
2022/01/10 08:59:04;;;;;;;199.87;87.07;;;3.00;99.90;;;;;;10312673;28;20197;-77
2022/01/10 09:04:27;;;;;;;154.33;63.30;;;2.90;99.90;;;;;;10314515;28;20739;-77
2022/01/10 09:09:51;;;;;;;83.23;40.40;;;2.00;99.90;;;;;;10313522;28;20213;-77
2022/01/10 09:15:14;;;;;;;70.07;37.23;;;1.30;99.90;;;;;;10312041;28;20234;-76
2022/01/10 09:20:37;;;;;;;58.87;32.60;;;0.80;99.90;;;;;;10332565;28;20492;-76
2022/01/10 09:25:59;;;;;;;53.63;29.63;;;0.50;99.90;;;;;;10339637;28;20494;-76
2022/01/10 09:31:22;;;;;;;66.77;32.87;;;0.30;99.90;;;;;;10328013;28;20241;-84
2022/01/10 09:36:45;;;;;;;90.33;39.57;;;0.20;99.90;;;;;;10352459;28;20201;-78
2022/01/10 09:42:07;;;;;;;104.50;43.10;;;0.00;99.90;;;;;;10328033;28;20198;-80
2022/01/10 09:47:29;;;;;;;88.77;42.67;;;0.00;99.90;;;;;;10298085;28;20232;-77
2022/01/10 09:52:52;;;;;;;70.77;34.57;;;0.10;99.90;;;;;;10297502;28;20475;-75
2022/01/10 09:58:15;;;;;;;54.53;27.33;;;0.10;99.90;;;;;;10311140;28;20249;-76
2022/01/10 10:03:36;;;;;;;61.60;29.43;;;0.10;99.90;;;;;;10310759;28;20207;-75
2022/01/10 10:09:01;;;;;;;60.10;31.33;;;0.10;99.90;;;;;;10312596;28;20210;-74
2022/01/10 10:14:23;;;;;;;50.37;28.60;;;0.10;99.90;;;;;;10311605;28;20385;-76
2022/01/10 10:19:46;;;;;;;63.23;32.20;;;0.20;99.90;;;;;;10310070;28;20213;-76
2022/01/10 10:25:10;;;;;;;74.27;35.17;;;0.30;99.90;;;;;;10333010;28;20249;-76
2022/01/10 10:30:32;;;;;;;91.73;38.13;;;0.30;99.90;;;;;;10343861;28;20559;-82
2022/01/10 10:36:07;;;;;;;77.13;35.07;;;0.30;99.90;;;;;;10351124;28;20492;-81
2022/01/10 10:41:29;;;;;;;99.67;43.07;;;0.30;99.90;;;;;;10315494;28;20217;-80
2022/01/10 10:46:51;;;;;;;72.50;33.30;;;0.40;99.90;;;;;;10309628;28;20285;-83
2022/01/10 10:52:13;;;;;;;54.60;27.43;;;0.40;99.90;;;;;;10295634;28;20314;-78
2022/01/10 10:57:36;;;;;;;58.20;29.50;;;0.50;99.90;;;;;;10308932;28;20282;-75
2022/01/10 11:02:59;;;;;;;50.37;25.20;;;0.60;99.90;;;;;;10310004;28;20198;-79
2022/01/10 11:08:26;;;;;;;70.50;29.70;;;0.70;99.90;;;;;;10309154;28;20198;-81
2022/01/10 11:13:50;;;;;;;69.07;32.63;;;0.80;99.90;;;;;;10308645;28;20222;-81
2022/01/10 11:19:12;;;;;;;62.50;28.77;;;0.90;99.90;;;;;;10323043;28;20221;-79
2022/01/10 11:24:47;;;;;;;43.63;23.83;;;1.70;99.90;;;;;;10316015;28;20192;-76
2022/01/10 11:30:22;;;;;;;34.80;18.37;;;2.70;99.90;;;;;;10346899;28;20244;-77
2022/01/10 11:35:53;;;;;;;28.30;17.20;;;3.50;99.90;;;;;;10348509;28;20230;-78
2022/01/10 11:41:17;;;;;;;39.53;20.00;;;4.20;99.90;;;;;;10344635;28;20500;-79
2022/01/10 11:46:41;;;;;;;33.53;16.90;;;4.20;99.90;;;;;;10335771;28;20250;-82
2022/01/10 11:57:12;;;;;;;51.83;23.40;;;3.30;99.90;;;;;;10425794;28;20570;-77
2022/01/10 12:02:37;;;;;;;47.30;25.10;;;3.00;99.90;;;;;;10412664;28;20200;-80
2022/01/10 12:08:03;;;;;;;45.07;24.33;;;2.90;99.90;;;;;;10425727;28;20226;-78
2022/01/10 12:13:29;;;;;;;54.17;26.27;;;2.80;99.90;;;;;;10425380;28;20229;-78
2022/01/10 12:18:51;;;;;;;47.17;24.23;;;2.80;99.90;;;;;;10356626;28;20200;-82
2022/01/10 12:24:16;;;;;;;41.33;21.83;;;2.50;99.90;;;;;;10372475;28;20286;-77
2022/01/10 12:29:40;;;;;;;45.57;23.17;;;2.00;99.90;;;;;;10407493;28;20396;-77
2022/01/10 12:35:04;;;;;;;34.97;18.27;;;1.70;99.90;;;;;;10423669;28;20240;-83
2022/01/10 12:40:31;;;;;;;46.67;23.03;;;1.40;99.90;;;;;;10409167;28;20202;-78
2022/01/10 12:45:53;;;;;;;55.57;25.43;;;1.30;99.90;;;;;;10410631;28;20307;-79
2022/01/10 12:51:17;;;;;;;59.40;25.37;;;1.10;99.90;;;;;;10408846;28;20209;-79
2022/01/10 12:56:55;;;;;;;61.23;26.77;;;1.10;99.90;;;;;;10501115;28;20247;-80
2022/01/10 13:02:19;;;;;;;56.43;26.20;;;1.00;99.90;;;;;;10490807;28;20241;-79
2022/01/10 13:07:51;;;;;;;58.03;28.10;;;1.00;99.90;;;;;;10481949;28;20215;-80
2022/01/10 13:13:39;;;;;;;64.23;26.13;;;0.90;99.90;;;;;;10462949;28;20223;-81
2022/01/10 13:19:07;;;;;;;82.13;32.13;;;0.90;99.90;;;;;;10463235;28;20199;-80
2022/01/10 13:24:32;;;;;;;67.57;27.17;;;0.90;99.90;;;;;;10462372;28;20207;-78
2022/01/10 13:29:58;;;;;;;72.40;29.07;;;0.80;99.90;;;;;;10460005;28;20702;-82
2022/01/10 13:35:26;;;;;;;58.37;28.20;;;0.70;99.90;;;;;;10450901;28;20258;-78
2022/01/10 13:40:49;;;;;;;53.37;25.80;;;0.70;99.90;;;;;;10476884;28;20266;-80
2022/01/10 13:46:18;;;;;;;50.93;27.00;;;0.70;99.90;;;;;;10446605;28;20215;-78
2022/01/10 13:51:40;;;;;;;54.33;29.00;;;0.60;99.90;;;;;;10445267;28;20229;-80
2022/01/10 13:57:25;;;;;;;55.13;29.00;;;0.60;99.90;;;;;;10473398;28;20250;-77
2022/01/10 14:02:47;;;;;;;56.67;29.37;;;0.50;99.90;;;;;;10476272;28;20263;-77
2022/01/10 14:08:13;;;;;;;60.27;28.70;;;0.50;99.90;;;;;;10475541;28;20294;-78
2022/01/10 14:13:36;;;;;;;77.90;36.43;;;0.30;99.90;;;;;;10460994;28;20242;-83
2022/01/10 14:18:58;;;;;;;76.77;38.83;;;0.20;99.90;;;;;;10474908;28;20191;-81
2022/01/10 14:24:20;;;;;;;105.73;52.23;;;0.20;99.90;;;;;;10453488;28;20282;-84
2022/01/10 14:29:42;;;;;;;114.80;55.43;;;0.10;99.90;;;;;;10465195;28;20217;-84
2022/01/10 14:35:05;;;;;;;106.27;51.63;;;0.00;99.90;;;;;;10447355;28;20310;-82
2022/01/10 14:40:28;;;;;;;98.17;45.93;;;0.00;99.90;;;;;;10447164;28;20198;-86
2022/01/10 14:45:50;;;;;;;119.63;57.83;;;-0.10;99.90;;;;;;10448427;28;20219;-87
2022/01/10 14:51:15;;;;;;;137.93;64.60;;;-0.10;99.90;;;;;;10461295;28;20209;-90
2022/01/10 14:56:37;;;;;;;206.27;97.40;;;-0.10;99.90;;;;;;10461088;28;20235;-86
2022/01/10 15:02:00;;;;;;;181.73;87.47;;;-0.30;99.90;;;;;;10473660;28;20210;-81
2022/01/10 15:07:22;;;;;;;164.23;77.80;;;-0.40;99.90;;;;;;10460069;28;20237;-81
2022/01/10 15:12:44;;;;;;;172.10;79.23;;;-0.50;99.90;;;;;;10430813;28;20277;-82
2022/01/10 15:18:07;;;;;;;154.03;72.97;;;-0.60;99.90;;;;;;10459647;28;20408;-82
2022/01/10 15:23:32;;;;;;;240.07;102.83;;;-0.70;99.90;;;;;;10459063;28;20198;-83
2022/01/10 15:28:54;;;;;;;242.23;105.10;;;-0.70;99.90;;;;;;10445878;28;20290;-84
2022/01/10 15:34:19;;;;;;;259.97;116.53;;;-0.90;99.90;;;;;;10444589;28;20552;-82
2022/01/10 15:39:42;;;;;;;266.07;120.10;;;-1.00;99.90;;;;;;10471301;28;20192;-78
2022/01/10 15:45:08;;;;;;;246.37;112.47;;;-1.10;99.90;;;;;;10472216;28;20205;-78
2022/01/10 15:50:31;;;;;;;288.13;120.53;;;-1.30;99.90;;;;;;10471943;28;20452;-78
2022/01/10 15:55:54;;;;;;;292.37;122.27;;;-1.40;99.90;;;;;;10471733;28;20253;-84
2022/01/10 16:01:16;;;;;;;307.20;129.63;;;-1.50;99.90;;;;;;10472065;28;20718;-81
2022/01/10 16:06:38;;;;;;;271.40;113.70;;;-1.60;99.90;;;;;;10444908;28;20412;-83
2022/01/10 16:12:01;;;;;;;196.30;85.90;;;-1.70;99.90;;;;;;10470215;28;20201;-83
2022/01/10 16:17:23;;;;;;;159.10;71.07;;;-1.80;99.90;;;;;;10474478;28;20524;-80
2022/01/10 16:22:45;;;;;;;150.63;66.80;;;-1.90;99.90;;;;;;10462315;28;20202;-81
2022/01/10 16:28:07;;;;;;;147.77;65.47;;;-1.90;99.90;;;;;;10448281;28;20516;-81
2022/01/10 16:33:30;;;;;;;205.63;83.27;;;-2.00;99.90;;;;;;10446715;28;20226;-82
2022/01/10 16:38:52;;;;;;;262.47;100.57;;;-2.10;99.90;;;;;;10449215;28;20200;-81
2022/01/10 16:44:18;;;;;;;304.83;118.97;;;-2.20;99.90;;;;;;10484295;28;20190;-80
2022/01/10 16:49:41;;;;;;;314.17;118.47;;;-2.30;99.90;;;;;;10466227;28;20211;-80
2022/01/10 16:55:03;;;;;;;326.03;120.73;;;-2.30;99.90;;;;;;10466206;28;20267;-81
2022/01/10 17:00:26;;;;;;;324.53;118.87;;;-2.50;99.90;;;;;;10481705;28;20257;-82
2022/01/10 17:05:49;;;;;;;344.07;129.37;;;-2.50;99.90;;;;;;10468784;28;20281;-82
2022/01/10 17:11:12;;;;;;;327.00;120.90;;;-2.60;99.90;;;;;;10468969;28;20193;-81
2022/01/10 17:16:36;;;;;;;304.90;116.40;;;-2.60;99.90;;;;;;10454586;28;20224;-81
2022/01/10 17:21:59;;;;;;;314.80;117.63;;;-2.60;99.90;;;;;;10482473;28;20195;-81
2022/01/10 17:27:21;;;;;;;343.90;124.80;;;-2.70;99.90;;;;;;10468138;28;20206;-81
2022/01/10 17:32:43;;;;;;;359.73;134.83;;;-2.70;99.90;;;;;;10461583;28;20198;-80
2022/01/10 17:38:05;;;;;;;379.20;143.17;;;-2.80;99.90;;;;;;10440859;28;20205;-81
2022/01/10 17:43:26;;;;;;;376.30;144.77;;;-2.80;99.90;;;;;;10426450;28;20377;-81
2022/01/10 17:48:49;;;;;;;343.80;135.40;;;;;;;;;;10439767;28;20273;-82
2022/01/10 17:54:10;;;;;;;308.10;127.20;;;-2.90;99.90;;;;;;10425574;28;20640;-82
2022/01/10 17:59:34;;;;;;;300.47;120.70;;;-2.90;99.90;;;;;;10425684;28;20892;-81
2022/01/10 18:04:56;;;;;;;272.67;115.90;;;-2.90;99.90;;;;;;10443259;28;20223;-80
2022/01/10 18:10:18;;;;;;;267.83;116.80;;;-2.90;99.90;;;;;;10466637;28;20228;-81
2022/01/10 18:15:41;;;;;;;283.37;118.57;;;-3.00;99.90;;;;;;10466069;28;20390;-82
2022/01/10 18:21:05;;;;;;;279.43;116.67;;;-3.10;99.90;;;;;;10466250;28;20203;-82
2022/01/10 18:26:27;;;;;;;266.40;112.87;;;-3.00;99.90;;;;;;10465490;28;20203;-81
2022/01/10 18:31:50;;;;;;;296.33;120.63;;;-3.20;99.90;;;;;;10465692;28;20518;-81
2022/01/10 18:37:11;;;;;;;341.83;134.50;;;-3.30;99.90;;;;;;10466344;28;20296;-81
2022/01/10 18:42:34;;;;;;;379.03;146.70;;;-3.40;99.90;;;;;;10466106;28;20189;-81
2022/01/10 18:47:57;;;;;;;481.33;185.60;;;-3.50;99.90;;;;;;10479435;28;20190;-81
2022/01/10 18:53:19;;;;;;;533.53;207.73;;;-3.50;99.90;;;;;;10464470;28;20247;-82
2022/01/10 18:58:41;;;;;;;537.37;207.37;;;-3.40;99.90;;;;;;10464545;28;20201;-81
2022/01/10 19:04:04;;;;;;;533.23;216.13;;;-3.40;99.90;;;;;;10463904;28;20542;-81
2022/01/10 19:09:26;;;;;;;552.53;228.23;;;-3.50;99.90;;;;;;10464273;28;20222;-80
2022/01/10 19:14:49;;;;;;;516.57;219.03;;;-3.60;99.90;;;;;;10463939;28;20248;-81
2022/01/10 19:20:12;;;;;;;487.87;200.20;;;-3.70;99.90;;;;;;10464042;28;20193;-81
2022/01/10 19:25:35;;;;;;;410.57;162.40;;;-3.80;99.90;;;;;;10463605;28;20397;-81
2022/01/10 19:30:57;;;;;;;344.43;140.80;;;-3.80;99.90;;;;;;10477514;28;20213;-81
2022/01/10 19:36:19;;;;;;;320.33;126.20;;;-3.90;99.90;;;;;;10463389;28;20221;-81
2022/01/10 19:41:41;;;;;;;303.00;124.53;;;-3.90;99.90;;;;;;10463110;28;20193;-81
2022/01/10 19:47:04;;;;;;;324.07;123.53;;;-3.90;99.90;;;;;;10463165;28;20533;-81
2022/01/10 19:52:28;;;;;;;335.57;121.23;;;-4.00;99.90;;;;;;10462941;28;20197;-80
2022/01/10 19:57:50;;;;;;;311.43;117.20;;;-4.10;99.90;;;;;;10476850;28;20233;-81
2022/01/10 20:03:13;;;;;;;320.47;123.30;;;-4.10;99.90;;;;;;10449320;28;20199;-82
2022/01/10 20:08:35;;;;;;;333.73;127.17;;;-4.20;99.90;;;;;;10462770;28;20196;-83
2022/01/10 20:13:57;;;;;;;362.27;139.13;;;-4.10;99.90;;;;;;10462506;28;20227;-81
2022/01/10 20:19:20;;;;;;;371.43;138.13;;;-4.10;99.90;;;;;;10470956;28;20272;-82
2022/01/10 20:24:42;;;;;;;353.60;141.77;;;-4.10;99.90;;;;;;10484695;28;20196;-81
2022/01/10 20:30:05;;;;;;;324.27;136.53;;;-4.10;99.90;;;;;;10470730;28;20512;-80
2022/01/10 20:35:27;;;;;;;331.57;134.77;;;-4.20;99.90;;;;;;10470113;28;20306;-80
2022/01/10 20:40:50;;;;;;;333.83;131.50;;;-4.20;99.90;;;;;;10470141;28;20192;-80
2022/01/10 20:46:12;;;;;;;324.83;130.80;;;-4.10;99.90;;;;;;10470407;28;20196;-83
2022/01/10 20:51:34;;;;;;;292.80;119.53;;;-4.10;99.90;;;;;;10470907;28;20448;-83
2022/01/10 20:56:57;;;;;;;265.87;114.87;;;-4.20;99.90;;;;;;10469725;28;20236;-81
2022/01/10 21:02:19;;;;;;;276.57;111.63;;;-4.20;99.90;;;;;;10469858;28;20382;-82
2022/01/10 21:07:45;;;;;;;248.50;108.73;;;-4.20;99.90;;;;;;10455405;28;20253;-82
2022/01/10 21:13:07;;;;;;;264.87;106.63;;;-4.50;99.90;;;;;;10469181;28;20193;-81
2022/01/10 21:18:30;;;;;;;243.37;108.07;;;-4.60;99.90;;;;;;10468978;28;20282;-80
2022/01/10 21:23:52;;;;;;;261.63;107.30;;;-4.70;99.90;;;;;;10468089;28;20194;-80
2022/01/10 21:29:14;;;;;;;244.83;101.00;;;-4.70;99.90;;;;;;10467636;28;20217;-80
2022/01/10 21:34:37;;;;;;;235.80;106.43;;;-4.80;99.90;;;;;;10468008;28;20234;-80
2022/01/10 21:39:59;;;;;;;244.67;106.13;;;-4.90;99.90;;;;;;10481859;28;20520;-80
2022/01/10 21:45:21;;;;;;;256.77;107.17;;;-4.90;99.90;;;;;;10467252;28;20383;-80
2022/01/10 21:50:45;;;;;;;284.37;116.73;;;-5.00;99.90;;;;;;10439646;28;20195;-81
2022/01/10 21:56:07;;;;;;;342.13;128.80;;;-4.90;99.90;;;;;;10441368;28;20239;-81
2022/01/10 22:01:29;;;;;;;361.40;134.30;;;-4.80;99.90;;;;;;10439541;28;20199;-82
2022/01/10 22:06:52;;;;;;;317.33;125.47;;;-4.80;99.90;;;;;;10412160;28;20490;-82
2022/01/10 22:12:15;;;;;;;267.03;112.83;;;-4.80;99.90;;;;;;10425488;28;20196;-81
2022/01/10 22:17:37;;;;;;;301.37;116.67;;;-5.00;99.90;;;;;;10470437;28;20269;-80
2022/01/10 22:22:59;;;;;;;320.43;126.83;;;-4.90;99.90;;;;;;10449654;28;20205;-81
2022/01/10 22:28:21;;;;;;;293.00;118.77;;;-5.00;99.90;;;;;;10470235;28;20271;-80
2022/01/10 22:33:44;;;;;;;287.20;114.33;;;-5.10;99.90;;;;;;10487339;28;20200;-82
2022/01/10 22:39:05;;;;;;;291.70;116.10;;;-5.20;99.90;;;;;;10478784;28;20201;-81
2022/01/10 22:44:28;;;;;;;265.80;112.23;;;-5.40;99.90;;;;;;10479806;28;20192;-80
2022/01/10 22:49:50;;;;;;;277.10;112.07;;;-5.30;99.90;;;;;;10478999;28;20286;-81
2022/01/10 22:55:12;;;;;;;280.13;108.50;;;-5.30;99.90;;;;;;10451182;28;20246;-80
2022/01/10 23:00:35;;;;;;;279.33;110.17;;;-5.20;99.90;;;;;;10464885;28;20199;-80
2022/01/10 23:05:59;;;;;;;269.03;103.13;;;-5.10;99.90;;;;;;10451229;28;20228;-80
2022/01/10 23:11:22;;;;;;;220.67;89.40;;;-5.10;99.90;;;;;;10464526;28;20196;-81
2022/01/10 23:16:44;;;;;;;253.93;95.83;;;-5.10;99.90;;;;;;10464103;28;20464;-80
2022/01/10 23:22:06;;;;;;;253.93;103.47;;;-5.10;99.90;;;;;;10463677;28;20193;-82
2022/01/10 23:27:28;;;;;;;267.30;101.43;;;-5.20;99.90;;;;;;10464378;28;20209;-80
2022/01/10 23:32:51;;;;;;;287.10;112.83;;;-5.30;99.90;;;;;;10436937;28;20197;-82
2022/01/10 23:38:13;;;;;;;322.47;120.17;;;-5.30;99.90;;;;;;10463569;28;20298;-81
2022/01/10 23:43:37;;;;;;;319.87;124.80;;;-5.40;99.90;;;;;;10477564;28;20196;-80
2022/01/10 23:48:59;;;;;;;287.77;111.90;;;-5.40;99.90;;;;;;10477000;28;20443;-81
2022/01/10 23:54:21;;;;;;;255.33;97.83;;;-5.50;99.90;;;;;;10448907;28;20273;-82
2022/01/10 23:59:43;;;;;;;202.17;82.67;;;-5.40;99.90;;;;;;10463359;28;20505;-80
